sensor_id;sensor_type;location;lat;lon;timestamp;P1;durP1;ratioP1;P2;durP2;ratioP2
11191;SDS011;5652;48.406;10.820;2024-01-07T00:01:45;23.63;;;17.90;;
11191;SDS011;5652;48.406;10.820;2024-01-07T00:04:14;22.50;;;16.90;;
11191;SDS011;5652;48.406;10.820;2024-01-07T00:06:41;23.15;;;17.27;;
11191;SDS011;5652;48.406;10.820;2024-01-07T00:09:10;21.83;;;17.53;;
11191;SDS011;5652;48.406;10.820;2024-01-07T00:11:37;23.30;;;17.40;;
11191;SDS011;5652;48.406;10.820;2024-01-07T00:14:04;26.38;;;18.00;;
11191;SDS011;5652;48.406;10.820;2024-01-07T00:16:31;21.85;;;16.70;;
11191;SDS011;5652;48.406;10.820;2024-01-07T00:18:59;22.58;;;17.77;;
11191;SDS011;5652;48.406;10.820;2024-01-07T00:21:26;24.08;;;18.45;;
11191;SDS011;5652;48.406;10.820;2024-01-07T00:23:53;25.20;;;18.42;;
11191;SDS011;5652;48.406;10.820;2024-01-07T00:26:22;24.42;;;18.42;;
11191;SDS011;5652;48.406;10.820;2024-01-07T00:28:49;24.02;;;18.08;;
11191;SDS011;5652;48.406;10.820;2024-01-07T00:31:16;24.63;;;18.50;;
11191;SDS011;5652;48.406;10.820;2024-01-07T00:33:43;24.25;;;18.25;;
11191;SDS011;5652;48.406;10.820;2024-01-07T00:36:10;25.25;;;18.50;;
11191;SDS011;5652;48.406;10.820;2024-01-07T00:38:37;24.55;;;18.80;;
11191;SDS011;5652;48.406;10.820;2024-01-07T00:41:04;25.80;;;17.85;;
11191;SDS011;5652;48.406;10.820;2024-01-07T00:43:33;27.33;;;18.42;;
11191;SDS011;5652;48.406;10.820;2024-01-07T00:46:00;24.13;;;18.43;;
11191;SDS011;5652;48.406;10.820;2024-01-07T00:48:27;23.80;;;17.75;;
11191;SDS011;5652;48.406;10.820;2024-01-07T00:50:54;24.40;;;18.87;;
11191;SDS011;5652;48.406;10.820;2024-01-07T00:53:21;24.48;;;18.33;;
11191;SDS011;5652;48.406;10.820;2024-01-07T00:55:48;23.17;;;17.97;;
11191;SDS011;5652;48.406;10.820;2024-01-07T00:58:16;22.70;;;18.00;;
11191;SDS011;5652;48.406;10.820;2024-01-07T01:00:44;23.35;;;18.23;;
11191;SDS011;5652;48.406;10.820;2024-01-07T01:03:11;24.27;;;18.15;;
11191;SDS011;5652;48.406;10.820;2024-01-07T01:05:38;23.58;;;18.02;;
11191;SDS011;5652;48.406;10.820;2024-01-07T01:08:06;21.77;;;17.40;;
11191;SDS011;5652;48.406;10.820;2024-01-07T01:10:33;24.15;;;18.50;;
11191;SDS011;5652;48.406;10.820;2024-01-07T01:13:00;23.23;;;17.25;;
11191;SDS011;5652;48.406;10.820;2024-01-07T01:15:27;23.10;;;18.05;;
11191;SDS011;5652;48.406;10.820;2024-01-07T01:17:55;23.10;;;17.55;;
11191;SDS011;5652;48.406;10.820;2024-01-07T01:20:23;21.73;;;17.50;;
11191;SDS011;5652;48.406;10.820;2024-01-07T01:22:50;23.33;;;17.90;;
11191;SDS011;5652;48.406;10.820;2024-01-07T01:25:17;19.75;;;16.05;;
11191;SDS011;5652;48.406;10.820;2024-01-07T01:27:44;19.42;;;15.80;;
11191;SDS011;5652;48.406;10.820;2024-01-07T01:30:12;18.20;;;15.38;;
11191;SDS011;5652;48.406;10.820;2024-01-07T01:32:39;19.23;;;15.15;;
11191;SDS011;5652;48.406;10.820;2024-01-07T01:35:08;18.15;;;15.32;;
11191;SDS011;5652;48.406;10.820;2024-01-07T01:37:35;19.80;;;15.60;;
11191;SDS011;5652;48.406;10.820;2024-01-07T01:40:02;19.35;;;15.57;;
11191;SDS011;5652;48.406;10.820;2024-01-07T01:42:30;20.88;;;16.38;;
11191;SDS011;5652;48.406;10.820;2024-01-07T01:44:57;20.07;;;15.03;;
11191;SDS011;5652;48.406;10.820;2024-01-07T01:47:26;19.45;;;16.17;;
11191;SDS011;5652;48.406;10.820;2024-01-07T01:49:53;19.00;;;15.90;;
11191;SDS011;5652;48.406;10.820;2024-01-07T01:52:22;19.85;;;16.17;;
11191;SDS011;5652;48.406;10.820;2024-01-07T01:54:49;19.83;;;15.85;;
11191;SDS011;5652;48.406;10.820;2024-01-07T01:57:19;20.42;;;16.55;;
11191;SDS011;5652;48.406;10.820;2024-01-07T01:59:47;20.08;;;15.95;;
11191;SDS011;5652;48.406;10.820;2024-01-07T02:02:15;19.10;;;15.98;;
11191;SDS011;5652;48.406;10.820;2024-01-07T02:04:42;20.90;;;16.58;;
11191;SDS011;5652;48.406;10.820;2024-01-07T02:07:09;20.30;;;16.77;;
11191;SDS011;5652;48.406;10.820;2024-01-07T02:09:38;21.38;;;16.83;;
11191;SDS011;5652;48.406;10.820;2024-01-07T02:12:05;21.13;;;17.00;;
11191;SDS011;5652;48.406;10.820;2024-01-07T02:14:36;20.67;;;16.55;;
11191;SDS011;5652;48.406;10.820;2024-01-07T02:17:03;19.08;;;15.93;;
11191;SDS011;5652;48.406;10.820;2024-01-07T02:19:30;20.88;;;16.15;;
11191;SDS011;5652;48.406;10.820;2024-01-07T02:21:57;20.30;;;16.42;;
11191;SDS011;5652;48.406;10.820;2024-01-07T02:24:26;20.73;;;16.37;;
11191;SDS011;5652;48.406;10.820;2024-01-07T02:26:53;19.42;;;16.08;;
11191;SDS011;5652;48.406;10.820;2024-01-07T02:29:20;22.13;;;16.45;;
11191;SDS011;5652;48.406;10.820;2024-01-07T02:31:47;21.90;;;16.17;;
11191;SDS011;5652;48.406;10.820;2024-01-07T02:34:15;20.52;;;16.20;;
11191;SDS011;5652;48.406;10.820;2024-01-07T02:36:42;19.40;;;16.50;;
11191;SDS011;5652;48.406;10.820;2024-01-07T02:39:09;21.25;;;16.65;;
11191;SDS011;5652;48.406;10.820;2024-01-07T02:41:37;21.00;;;16.73;;
11191;SDS011;5652;48.406;10.820;2024-01-07T02:44:04;21.80;;;17.27;;
11191;SDS011;5652;48.406;10.820;2024-01-07T02:46:31;20.73;;;16.77;;
11191;SDS011;5652;48.406;10.820;2024-01-07T02:48:58;21.83;;;17.13;;
11191;SDS011;5652;48.406;10.820;2024-01-07T02:51:25;20.58;;;16.80;;
11191;SDS011;5652;48.406;10.820;2024-01-07T02:53:53;20.98;;;17.20;;
11191;SDS011;5652;48.406;10.820;2024-01-07T02:56:20;21.70;;;17.65;;
11191;SDS011;5652;48.406;10.820;2024-01-07T02:58:48;22.70;;;17.95;;
11191;SDS011;5652;48.406;10.820;2024-01-07T03:01:15;21.92;;;17.60;;
11191;SDS011;5652;48.406;10.820;2024-01-07T03:03:42;23.33;;;18.35;;
11191;SDS011;5652;48.406;10.820;2024-01-07T03:06:09;25.00;;;18.67;;
11191;SDS011;5652;48.406;10.820;2024-01-07T03:08:35;24.63;;;18.25;;
11191;SDS011;5652;48.406;10.820;2024-01-07T03:11:04;22.77;;;18.02;;
11191;SDS011;5652;48.406;10.820;2024-01-07T03:13:31;24.35;;;18.92;;
11191;SDS011;5652;48.406;10.820;2024-01-07T03:16:00;24.38;;;19.35;;
11191;SDS011;5652;48.406;10.820;2024-01-07T03:18:27;23.58;;;19.15;;
11191;SDS011;5652;48.406;10.820;2024-01-07T03:20:54;24.33;;;19.50;;
11191;SDS011;5652;48.406;10.820;2024-01-07T03:23:21;24.88;;;18.95;;
11191;SDS011;5652;48.406;10.820;2024-01-07T03:25:48;25.35;;;18.92;;
11191;SDS011;5652;48.406;10.820;2024-01-07T03:28:16;23.83;;;19.40;;
11191;SDS011;5652;48.406;10.820;2024-01-07T03:30:43;24.23;;;19.35;;
11191;SDS011;5652;48.406;10.820;2024-01-07T03:33:11;24.52;;;19.45;;
11191;SDS011;5652;48.406;10.820;2024-01-07T03:35:40;22.98;;;19.15;;
11191;SDS011;5652;48.406;10.820;2024-01-07T03:38:07;27.45;;;20.90;;
11191;SDS011;5652;48.406;10.820;2024-01-07T03:40:34;25.10;;;20.02;;
11191;SDS011;5652;48.406;10.820;2024-01-07T03:43:01;28.42;;;20.67;;
11191;SDS011;5652;48.406;10.820;2024-01-07T03:45:28;27.23;;;20.27;;
11191;SDS011;5652;48.406;10.820;2024-01-07T03:47:56;26.98;;;21.27;;
11191;SDS011;5652;48.406;10.820;2024-01-07T03:50:24;27.55;;;20.15;;
11191;SDS011;5652;48.406;10.820;2024-01-07T03:52:51;25.23;;;20.33;;
11191;SDS011;5652;48.406;10.820;2024-01-07T03:55:19;26.33;;;20.48;;
11191;SDS011;5652;48.406;10.820;2024-01-07T03:57:46;24.40;;;19.05;;
11191;SDS011;5652;48.406;10.820;2024-01-07T04:00:13;25.17;;;19.73;;
11191;SDS011;5652;48.406;10.820;2024-01-07T04:02:41;24.52;;;19.88;;
11191;SDS011;5652;48.406;10.820;2024-01-07T04:05:09;26.52;;;20.48;;
11191;SDS011;5652;48.406;10.820;2024-01-07T04:07:37;26.55;;;20.52;;
11191;SDS011;5652;48.406;10.820;2024-01-07T04:10:05;27.25;;;20.88;;
11191;SDS011;5652;48.406;10.820;2024-01-07T04:12:32;26.73;;;20.50;;
11191;SDS011;5652;48.406;10.820;2024-01-07T04:14:59;27.52;;;19.95;;
11191;SDS011;5652;48.406;10.820;2024-01-07T04:17:26;26.00;;;20.15;;
11191;SDS011;5652;48.406;10.820;2024-01-07T04:19:53;25.20;;;20.30;;
11191;SDS011;5652;48.406;10.820;2024-01-07T04:22:20;24.25;;;19.92;;
11191;SDS011;5652;48.406;10.820;2024-01-07T04:24:48;27.10;;;20.88;;
11191;SDS011;5652;48.406;10.820;2024-01-07T04:27:16;24.10;;;20.00;;
11191;SDS011;5652;48.406;10.820;2024-01-07T04:29:43;26.65;;;20.20;;
11191;SDS011;5652;48.406;10.820;2024-01-07T04:32:10;25.25;;;20.33;;
11191;SDS011;5652;48.406;10.820;2024-01-07T04:34:37;26.90;;;20.23;;
11191;SDS011;5652;48.406;10.820;2024-01-07T04:37:04;25.50;;;20.05;;
11191;SDS011;5652;48.406;10.820;2024-01-07T04:39:31;26.13;;;21.02;;
11191;SDS011;5652;48.406;10.820;2024-01-07T04:41:59;25.50;;;20.75;;
11191;SDS011;5652;48.406;10.820;2024-01-07T04:44:27;27.48;;;21.17;;
11191;SDS011;5652;48.406;10.820;2024-01-07T04:46:54;28.23;;;21.27;;
11191;SDS011;5652;48.406;10.820;2024-01-07T04:49:21;26.70;;;21.15;;
11191;SDS011;5652;48.406;10.820;2024-01-07T04:51:48;26.50;;;21.52;;
11191;SDS011;5652;48.406;10.820;2024-01-07T04:54:15;26.98;;;21.38;;
11191;SDS011;5652;48.406;10.820;2024-01-07T04:56:43;30.17;;;22.60;;
11191;SDS011;5652;48.406;10.820;2024-01-07T04:59:12;28.08;;;22.25;;
11191;SDS011;5652;48.406;10.820;2024-01-07T05:01:39;29.63;;;22.50;;
11191;SDS011;5652;48.406;10.820;2024-01-07T05:04:06;30.42;;;23.52;;
11191;SDS011;5652;48.406;10.820;2024-01-07T05:06:33;30.25;;;22.90;;
11191;SDS011;5652;48.406;10.820;2024-01-07T05:09:00;30.33;;;22.80;;
11191;SDS011;5652;48.406;10.820;2024-01-07T05:11:27;29.42;;;22.83;;
11191;SDS011;5652;48.406;10.820;2024-01-07T05:13:54;29.42;;;23.30;;
11191;SDS011;5652;48.406;10.820;2024-01-07T05:16:23;32.47;;;23.48;;
11191;SDS011;5652;48.406;10.820;2024-01-07T05:18:50;29.00;;;22.73;;
11191;SDS011;5652;48.406;10.820;2024-01-07T05:21:18;32.08;;;23.33;;
11191;SDS011;5652;48.406;10.820;2024-01-07T05:23:45;32.45;;;23.38;;
11191;SDS011;5652;48.406;10.820;2024-01-07T05:26:12;30.90;;;23.30;;
11191;SDS011;5652;48.406;10.820;2024-01-07T05:28:39;32.00;;;22.77;;
11191;SDS011;5652;48.406;10.820;2024-01-07T05:31:14;30.92;;;23.38;;
11191;SDS011;5652;48.406;10.820;2024-01-07T05:33:42;31.83;;;23.83;;
11191;SDS011;5652;48.406;10.820;2024-01-07T05:36:09;32.75;;;24.10;;
11191;SDS011;5652;48.406;10.820;2024-01-07T05:38:36;31.08;;;23.85;;
11191;SDS011;5652;48.406;10.820;2024-01-07T05:41:04;31.88;;;23.30;;
11191;SDS011;5652;48.406;10.820;2024-01-07T05:43:31;32.05;;;23.05;;
11191;SDS011;5652;48.406;10.820;2024-01-07T05:45:58;28.25;;;23.08;;
11191;SDS011;5652;48.406;10.820;2024-01-07T05:48:25;33.53;;;24.40;;
11191;SDS011;5652;48.406;10.820;2024-01-07T05:50:53;31.98;;;23.92;;
11191;SDS011;5652;48.406;10.820;2024-01-07T05:53:20;34.38;;;23.80;;
11191;SDS011;5652;48.406;10.820;2024-01-07T05:55:47;31.92;;;23.58;;
11191;SDS011;5652;48.406;10.820;2024-01-07T05:58:14;33.97;;;24.60;;
11191;SDS011;5652;48.406;10.820;2024-01-07T06:00:41;32.38;;;24.25;;
11191;SDS011;5652;48.406;10.820;2024-01-07T06:03:10;35.38;;;24.98;;
11191;SDS011;5652;48.406;10.820;2024-01-07T06:05:37;33.15;;;24.77;;
11191;SDS011;5652;48.406;10.820;2024-01-07T06:08:06;33.67;;;24.58;;
11191;SDS011;5652;48.406;10.820;2024-01-07T06:10:35;33.33;;;24.87;;
11191;SDS011;5652;48.406;10.820;2024-01-07T06:13:02;31.35;;;24.00;;
11191;SDS011;5652;48.406;10.820;2024-01-07T06:15:29;34.83;;;24.87;;
11191;SDS011;5652;48.406;10.820;2024-01-07T06:17:56;35.92;;;25.05;;
11191;SDS011;5652;48.406;10.820;2024-01-07T06:20:23;34.77;;;24.37;;
11191;SDS011;5652;48.406;10.820;2024-01-07T06:22:50;33.28;;;24.25;;
11191;SDS011;5652;48.406;10.820;2024-01-07T06:25:19;35.00;;;24.53;;
11191;SDS011;5652;48.406;10.820;2024-01-07T06:27:46;35.92;;;25.40;;
11191;SDS011;5652;48.406;10.820;2024-01-07T06:30:13;34.97;;;24.45;;
11191;SDS011;5652;48.406;10.820;2024-01-07T06:32:42;33.03;;;23.00;;
11191;SDS011;5652;48.406;10.820;2024-01-07T06:35:10;32.47;;;23.30;;
11191;SDS011;5652;48.406;10.820;2024-01-07T06:37:37;34.67;;;24.42;;
11191;SDS011;5652;48.406;10.820;2024-01-07T06:40:05;31.65;;;23.08;;
11191;SDS011;5652;48.406;10.820;2024-01-07T06:42:34;32.83;;;23.52;;
11191;SDS011;5652;48.406;10.820;2024-01-07T06:45:01;32.22;;;22.90;;
11191;SDS011;5652;48.406;10.820;2024-01-07T06:47:29;33.10;;;23.85;;
11191;SDS011;5652;48.406;10.820;2024-01-07T06:49:56;32.30;;;23.88;;
11191;SDS011;5652;48.406;10.820;2024-01-07T06:52:23;31.67;;;23.23;;
11191;SDS011;5652;48.406;10.820;2024-01-07T06:54:50;32.20;;;22.63;;
11191;SDS011;5652;48.406;10.820;2024-01-07T06:57:17;31.25;;;22.73;;
11191;SDS011;5652;48.406;10.820;2024-01-07T06:59:45;32.03;;;22.45;;
11191;SDS011;5652;48.406;10.820;2024-01-07T07:02:13;29.77;;;22.47;;
11191;SDS011;5652;48.406;10.820;2024-01-07T07:04:40;31.13;;;23.00;;
11191;SDS011;5652;48.406;10.820;2024-01-07T07:07:07;31.30;;;22.80;;
11191;SDS011;5652;48.406;10.820;2024-01-07T07:09:34;31.30;;;23.40;;
11191;SDS011;5652;48.406;10.820;2024-01-07T07:12:02;30.27;;;21.92;;
11191;SDS011;5652;48.406;10.820;2024-01-07T07:14:29;30.45;;;22.60;;
11191;SDS011;5652;48.406;10.820;2024-01-07T07:16:58;27.88;;;21.27;;
11191;SDS011;5652;48.406;10.820;2024-01-07T07:19:25;31.20;;;21.83;;
11191;SDS011;5652;48.406;10.820;2024-01-07T07:21:52;29.77;;;22.05;;
11191;SDS011;5652;48.406;10.820;2024-01-07T07:24:19;30.13;;;22.05;;
11191;SDS011;5652;48.406;10.820;2024-01-07T07:26:47;30.27;;;21.35;;
11191;SDS011;5652;48.406;10.820;2024-01-07T07:29:14;31.35;;;22.35;;
11191;SDS011;5652;48.406;10.820;2024-01-07T07:31:41;28.85;;;20.90;;
11191;SDS011;5652;48.406;10.820;2024-01-07T07:34:10;28.15;;;21.27;;
11191;SDS011;5652;48.406;10.820;2024-01-07T07:36:37;27.15;;;20.80;;
11191;SDS011;5652;48.406;10.820;2024-01-07T07:39:06;27.02;;;20.73;;
11191;SDS011;5652;48.406;10.820;2024-01-07T07:41:34;27.75;;;21.00;;
11191;SDS011;5652;48.406;10.820;2024-01-07T07:44:01;27.48;;;20.15;;
11191;SDS011;5652;48.406;10.820;2024-01-07T07:46:28;28.05;;;20.17;;
11191;SDS011;5652;48.406;10.820;2024-01-07T07:48:55;26.85;;;20.88;;
11191;SDS011;5652;48.406;10.820;2024-01-07T07:51:24;28.70;;;20.97;;
11191;SDS011;5652;48.406;10.820;2024-01-07T07:53:51;26.30;;;20.23;;
11191;SDS011;5652;48.406;10.820;2024-01-07T07:56:19;27.02;;;20.58;;
11191;SDS011;5652;48.406;10.820;2024-01-07T07:58:48;29.35;;;20.80;;
11191;SDS011;5652;48.406;10.820;2024-01-07T08:01:19;26.88;;;20.98;;
11191;SDS011;5652;48.406;10.820;2024-01-07T08:03:49;28.98;;;21.02;;
11191;SDS011;5652;48.406;10.820;2024-01-07T08:06:16;29.23;;;20.70;;
11191;SDS011;5652;48.406;10.820;2024-01-07T08:08:46;26.45;;;20.48;;
11191;SDS011;5652;48.406;10.820;2024-01-07T08:11:13;25.48;;;19.63;;
11191;SDS011;5652;48.406;10.820;2024-01-07T08:13:40;26.87;;;20.13;;
11191;SDS011;5652;48.406;10.820;2024-01-07T08:16:08;25.05;;;19.08;;
11191;SDS011;5652;48.406;10.820;2024-01-07T08:18:35;24.17;;;19.00;;
11191;SDS011;5652;48.406;10.820;2024-01-07T08:21:02;27.77;;;19.60;;
11191;SDS011;5652;48.406;10.820;2024-01-07T08:23:30;26.25;;;19.92;;
11191;SDS011;5652;48.406;10.820;2024-01-07T08:25:59;24.95;;;19.27;;
11191;SDS011;5652;48.406;10.820;2024-01-07T08:28:27;26.25;;;19.23;;
11191;SDS011;5652;48.406;10.820;2024-01-07T08:30:54;26.33;;;19.55;;
11191;SDS011;5652;48.406;10.820;2024-01-07T08:33:21;24.35;;;19.08;;
11191;SDS011;5652;48.406;10.820;2024-01-07T08:35:49;25.70;;;19.20;;
11191;SDS011;5652;48.406;10.820;2024-01-07T08:38:16;23.63;;;17.90;;
11191;SDS011;5652;48.406;10.820;2024-01-07T08:40:43;23.85;;;18.48;;
11191;SDS011;5652;48.406;10.820;2024-01-07T08:43:11;23.75;;;17.77;;
11191;SDS011;5652;48.406;10.820;2024-01-07T08:45:39;24.55;;;18.55;;
11191;SDS011;5652;48.406;10.820;2024-01-07T08:48:07;24.23;;;18.02;;
11191;SDS011;5652;48.406;10.820;2024-01-07T08:50:34;23.33;;;17.60;;
11191;SDS011;5652;48.406;10.820;2024-01-07T08:53:01;23.05;;;17.45;;
11191;SDS011;5652;48.406;10.820;2024-01-07T08:55:28;23.45;;;17.88;;
11191;SDS011;5652;48.406;10.820;2024-01-07T08:57:56;23.08;;;17.40;;
11191;SDS011;5652;48.406;10.820;2024-01-07T09:00:24;22.92;;;17.40;;
11191;SDS011;5652;48.406;10.820;2024-01-07T09:02:55;23.80;;;17.60;;
11191;SDS011;5652;48.406;10.820;2024-01-07T09:05:23;24.15;;;17.88;;
11191;SDS011;5652;48.406;10.820;2024-01-07T09:07:50;21.70;;;16.83;;
11191;SDS011;5652;48.406;10.820;2024-01-07T09:10:17;21.60;;;16.45;;
11191;SDS011;5652;48.406;10.820;2024-01-07T09:12:45;21.73;;;17.05;;
11191;SDS011;5652;48.406;10.820;2024-01-07T09:15:14;23.67;;;17.38;;
11191;SDS011;5652;48.406;10.820;2024-01-07T09:17:46;22.77;;;17.15;;
11191;SDS011;5652;48.406;10.820;2024-01-07T09:20:13;21.23;;;16.52;;
11191;SDS011;5652;48.406;10.820;2024-01-07T09:22:41;22.00;;;17.13;;
11191;SDS011;5652;48.406;10.820;2024-01-07T09:25:09;21.00;;;16.45;;
11191;SDS011;5652;48.406;10.820;2024-01-07T09:27:36;20.45;;;16.17;;
11191;SDS011;5652;48.406;10.820;2024-01-07T09:30:03;21.17;;;16.17;;
11191;SDS011;5652;48.406;10.820;2024-01-07T09:32:31;20.00;;;15.90;;
11191;SDS011;5652;48.406;10.820;2024-01-07T09:34:59;20.00;;;15.32;;
11191;SDS011;5652;48.406;10.820;2024-01-07T09:37:26;19.92;;;15.73;;
11191;SDS011;5652;48.406;10.820;2024-01-07T09:39:53;20.52;;;15.27;;
11191;SDS011;5652;48.406;10.820;2024-01-07T09:42:20;20.45;;;15.35;;
11191;SDS011;5652;48.406;10.820;2024-01-07T09:44:47;18.77;;;14.93;;
11191;SDS011;5652;48.406;10.820;2024-01-07T09:47:15;17.95;;;14.23;;
11191;SDS011;5652;48.406;10.820;2024-01-07T09:49:42;18.85;;;14.25;;
11191;SDS011;5652;48.406;10.820;2024-01-07T09:52:12;21.60;;;14.80;;
11191;SDS011;5652;48.406;10.820;2024-01-07T09:54:39;18.17;;;14.23;;
11191;SDS011;5652;48.406;10.820;2024-01-07T09:57:07;18.75;;;14.57;;
11191;SDS011;5652;48.406;10.820;2024-01-07T09:59:35;18.98;;;13.60;;
11191;SDS011;5652;48.406;10.820;2024-01-07T10:02:04;18.40;;;14.43;;
11191;SDS011;5652;48.406;10.820;2024-01-07T10:04:31;17.63;;;13.70;;
11191;SDS011;5652;48.406;10.820;2024-01-07T10:06:59;19.05;;;14.10;;
11191;SDS011;5652;48.406;10.820;2024-01-07T10:09:32;18.20;;;14.02;;
11191;SDS011;5652;48.406;10.820;2024-01-07T10:11:59;16.92;;;13.02;;
11191;SDS011;5652;48.406;10.820;2024-01-07T10:14:27;17.00;;;13.52;;
11191;SDS011;5652;48.406;10.820;2024-01-07T10:16:54;17.08;;;13.15;;
11191;SDS011;5652;48.406;10.820;2024-01-07T10:19:22;18.47;;;14.00;;
11191;SDS011;5652;48.406;10.820;2024-01-07T10:21:58;17.90;;;13.45;;
11191;SDS011;5652;48.406;10.820;2024-01-07T10:24:26;17.70;;;13.68;;
11191;SDS011;5652;48.406;10.820;2024-01-07T10:26:59;18.98;;;14.35;;
11191;SDS011;5652;48.406;10.820;2024-01-07T10:29:27;18.17;;;13.60;;
11191;SDS011;5652;48.406;10.820;2024-01-07T10:31:55;19.58;;;14.05;;
11191;SDS011;5652;48.406;10.820;2024-01-07T10:34:22;18.87;;;13.93;;
11191;SDS011;5652;48.406;10.820;2024-01-07T10:36:50;17.38;;;13.40;;
11191;SDS011;5652;48.406;10.820;2024-01-07T10:39:18;19.17;;;14.27;;
11191;SDS011;5652;48.406;10.820;2024-01-07T10:41:46;18.13;;;13.48;;
11191;SDS011;5652;48.406;10.820;2024-01-07T10:44:16;19.02;;;14.60;;
11191;SDS011;5652;48.406;10.820;2024-01-07T10:46:43;19.00;;;13.68;;
11191;SDS011;5652;48.406;10.820;2024-01-07T10:49:13;17.80;;;13.80;;
11191;SDS011;5652;48.406;10.820;2024-01-07T10:51:42;20.80;;;13.50;;
11191;SDS011;5652;48.406;10.820;2024-01-07T10:54:09;18.58;;;13.98;;
11191;SDS011;5652;48.406;10.820;2024-01-07T10:56:38;18.95;;;14.30;;
11191;SDS011;5652;48.406;10.820;2024-01-07T10:59:05;18.85;;;14.05;;
11191;SDS011;5652;48.406;10.820;2024-01-07T11:01:34;17.98;;;12.82;;
11191;SDS011;5652;48.406;10.820;2024-01-07T11:04:04;18.00;;;13.55;;
11191;SDS011;5652;48.406;10.820;2024-01-07T11:06:34;19.35;;;13.68;;
11191;SDS011;5652;48.406;10.820;2024-01-07T11:09:03;18.97;;;14.10;;
11191;SDS011;5652;48.406;10.820;2024-01-07T11:11:32;17.13;;;13.00;;
11191;SDS011;5652;48.406;10.820;2024-01-07T11:14:02;16.55;;;12.85;;
11191;SDS011;5652;48.406;10.820;2024-01-07T11:16:43;17.27;;;13.73;;
11191;SDS011;5652;48.406;10.820;2024-01-07T11:19:12;17.23;;;13.50;;
11191;SDS011;5652;48.406;10.820;2024-01-07T11:21:40;19.67;;;13.10;;
11191;SDS011;5652;48.406;10.820;2024-01-07T11:24:07;18.75;;;13.65;;
11191;SDS011;5652;48.406;10.820;2024-01-07T11:26:34;18.08;;;13.35;;
11191;SDS011;5652;48.406;10.820;2024-01-07T11:29:02;19.20;;;13.83;;
11191;SDS011;5652;48.406;10.820;2024-01-07T11:31:46;19.08;;;14.48;;
11191;SDS011;5652;48.406;10.820;2024-01-07T11:37:00;18.77;;;13.70;;
11191;SDS011;5652;48.406;10.820;2024-01-07T11:39:28;19.02;;;13.55;;
11191;SDS011;5652;48.406;10.820;2024-01-07T11:41:55;20.30;;;14.50;;
11191;SDS011;5652;48.406;10.820;2024-01-07T11:44:22;18.55;;;14.00;;
11191;SDS011;5652;48.406;10.820;2024-01-07T11:46:50;19.33;;;13.73;;
11191;SDS011;5652;48.406;10.820;2024-01-07T11:49:17;18.30;;;13.40;;
11191;SDS011;5652;48.406;10.820;2024-01-07T11:51:45;20.08;;;14.80;;
11191;SDS011;5652;48.406;10.820;2024-01-07T11:54:12;20.08;;;14.05;;
11191;SDS011;5652;48.406;10.820;2024-01-07T11:56:39;17.52;;;13.35;;
11191;SDS011;5652;48.406;10.820;2024-01-07T11:59:06;19.08;;;13.88;;
11191;SDS011;5652;48.406;10.820;2024-01-07T12:01:33;20.67;;;14.35;;
11191;SDS011;5652;48.406;10.820;2024-01-07T12:04:01;19.65;;;13.90;;
11191;SDS011;5652;48.406;10.820;2024-01-07T12:06:29;20.60;;;14.43;;
11191;SDS011;5652;48.406;10.820;2024-01-07T12:08:56;22.60;;;15.65;;
11191;SDS011;5652;48.406;10.820;2024-01-07T12:11:23;19.73;;;14.88;;
11191;SDS011;5652;48.406;10.820;2024-01-07T12:13:50;20.98;;;15.43;;
11191;SDS011;5652;48.406;10.820;2024-01-07T12:16:17;21.27;;;15.48;;
11191;SDS011;5652;48.406;10.820;2024-01-07T12:18:44;21.23;;;15.93;;
11191;SDS011;5652;48.406;10.820;2024-01-07T12:21:18;21.38;;;15.35;;
11191;SDS011;5652;48.406;10.820;2024-01-07T12:23:47;21.17;;;14.88;;
11191;SDS011;5652;48.406;10.820;2024-01-07T12:26:14;20.40;;;15.10;;
11191;SDS011;5652;48.406;10.820;2024-01-07T12:28:42;21.23;;;15.77;;
11191;SDS011;5652;48.406;10.820;2024-01-07T12:31:09;20.90;;;15.73;;
11191;SDS011;5652;48.406;10.820;2024-01-07T12:33:37;23.75;;;15.93;;
11191;SDS011;5652;48.406;10.820;2024-01-07T12:36:05;23.00;;;16.77;;
11191;SDS011;5652;48.406;10.820;2024-01-07T12:38:36;25.10;;;17.67;;
11191;SDS011;5652;48.406;10.820;2024-01-07T12:41:03;23.85;;;16.67;;
11191;SDS011;5652;48.406;10.820;2024-01-07T12:43:30;21.42;;;15.63;;
11191;SDS011;5652;48.406;10.820;2024-01-07T12:45:58;23.88;;;16.75;;
11191;SDS011;5652;48.406;10.820;2024-01-07T12:48:29;23.13;;;16.65;;
11191;SDS011;5652;48.406;10.820;2024-01-07T12:50:56;25.20;;;16.95;;
11191;SDS011;5652;48.406;10.820;2024-01-07T12:53:23;24.77;;;17.60;;
11191;SDS011;5652;48.406;10.820;2024-01-07T12:55:52;24.42;;;17.85;;
11191;SDS011;5652;48.406;10.820;2024-01-07T12:58:19;25.30;;;18.58;;
11191;SDS011;5652;48.406;10.820;2024-01-07T13:00:47;23.15;;;17.50;;
11191;SDS011;5652;48.406;10.820;2024-01-07T13:03:14;26.42;;;18.35;;
11191;SDS011;5652;48.406;10.820;2024-01-07T13:05:43;26.02;;;18.73;;
11191;SDS011;5652;48.406;10.820;2024-01-07T13:08:11;27.13;;;19.33;;
11191;SDS011;5652;48.406;10.820;2024-01-07T13:10:38;26.85;;;19.15;;
11191;SDS011;5652;48.406;10.820;2024-01-07T13:13:07;27.50;;;19.27;;
11191;SDS011;5652;48.406;10.820;2024-01-07T13:15:35;26.45;;;19.63;;
11191;SDS011;5652;48.406;10.820;2024-01-07T13:18:02;27.58;;;19.58;;
11191;SDS011;5652;48.406;10.820;2024-01-07T13:20:29;25.83;;;18.40;;
11191;SDS011;5652;48.406;10.820;2024-01-07T13:22:56;28.13;;;18.73;;
11191;SDS011;5652;48.406;10.820;2024-01-07T13:25:23;26.75;;;18.63;;
11191;SDS011;5652;48.406;10.820;2024-01-07T13:27:50;27.80;;;18.90;;
11191;SDS011;5652;48.406;10.820;2024-01-07T13:30:19;25.88;;;18.65;;
11191;SDS011;5652;48.406;10.820;2024-01-07T13:32:46;26.27;;;18.30;;
11191;SDS011;5652;48.406;10.820;2024-01-07T13:35:14;26.90;;;19.08;;
11191;SDS011;5652;48.406;10.820;2024-01-07T13:37:41;26.67;;;18.77;;
11191;SDS011;5652;48.406;10.820;2024-01-07T13:40:09;27.33;;;18.80;;
11191;SDS011;5652;48.406;10.820;2024-01-07T13:42:37;30.05;;;20.33;;
11191;SDS011;5652;48.406;10.820;2024-01-07T13:45:04;27.08;;;18.55;;
11191;SDS011;5652;48.406;10.820;2024-01-07T13:47:33;28.63;;;19.33;;
11191;SDS011;5652;48.406;10.820;2024-01-07T13:50:01;26.33;;;18.25;;
11191;SDS011;5652;48.406;10.820;2024-01-07T13:52:28;25.55;;;18.42;;
11191;SDS011;5652;48.406;10.820;2024-01-07T13:54:55;24.33;;;18.03;;
11191;SDS011;5652;48.406;10.820;2024-01-07T13:57:23;24.15;;;17.83;;
11191;SDS011;5652;48.406;10.820;2024-01-07T13:59:50;24.48;;;17.67;;
11191;SDS011;5652;48.406;10.820;2024-01-07T14:02:17;25.33;;;17.27;;
11191;SDS011;5652;48.406;10.820;2024-01-07T14:04:45;25.85;;;18.50;;
11191;SDS011;5652;48.406;10.820;2024-01-07T14:07:13;25.25;;;18.90;;
11191;SDS011;5652;48.406;10.820;2024-01-07T14:09:40;25.48;;;19.23;;
11191;SDS011;5652;48.406;10.820;2024-01-07T14:12:07;24.67;;;17.92;;
11191;SDS011;5652;48.406;10.820;2024-01-07T14:14:34;26.30;;;17.95;;
11191;SDS011;5652;48.406;10.820;2024-01-07T14:17:01;24.95;;;18.05;;
11191;SDS011;5652;48.406;10.820;2024-01-07T14:19:28;25.63;;;18.35;;
11191;SDS011;5652;48.406;10.820;2024-01-07T14:21:57;24.63;;;18.53;;
11191;SDS011;5652;48.406;10.820;2024-01-07T14:24:24;27.08;;;19.15;;
11191;SDS011;5652;48.406;10.820;2024-01-07T14:26:51;28.58;;;20.70;;